createdAt,value
2022-12-02T00:03:52.430Z,61.75
2022-12-02T00:08:57.229Z,62.80
2022-12-02T00:14:01.852Z,53.47
2022-12-02T00:19:06.115Z,64.70
2022-12-02T00:24:09.495Z,57.13
2022-12-02T00:29:12.532Z,57.20
2022-12-02T00:34:16.848Z,61.63
2022-12-02T00:39:19.817Z,55.22
2022-12-02T00:44:39.870Z,64.18
2022-12-02T00:49:44.168Z,63.78
2022-12-02T00:54:47.098Z,60.83
2022-12-02T00:59:50.142Z,62.42
2022-12-02T01:04:54.409Z,60.17
2022-12-02T01:09:57.447Z,57.00
2022-12-02T01:15:00.403Z,56.78
2022-12-02T01:20:05.476Z,57.33
2022-12-02T01:25:08.952Z,58.47
2022-12-02T01:30:13.300Z,59.88
2022-12-02T01:35:17.685Z,63.67
2022-12-02T01:40:23.891Z,61.95
2022-12-02T01:45:27.198Z,65.38
2022-12-02T01:50:33.847Z,62.60
2022-12-02T01:55:36.819Z,64.80
2022-12-02T02:00:39.953Z,58.65
2022-12-02T02:05:44.268Z,60.90
2022-12-02T02:10:48.367Z,62.23
2022-12-02T02:15:52.492Z,63.33
2022-12-02T02:20:58.416Z,65.33
2022-12-02T02:26:04.167Z,66.07
2022-12-02T02:31:11.056Z,65.22
2022-12-02T02:36:19.267Z,65.40
2022-12-02T02:41:23.776Z,67.55
2022-12-02T02:46:26.934Z,69.15
2022-12-02T02:51:30.295Z,70.05
2022-12-02T02:56:34.906Z,63.00
2022-12-02T03:01:38.531Z,67.70
2022-12-02T03:06:43.351Z,63.58
2022-12-02T03:11:50.813Z,65.80
2022-12-02T03:16:54.552Z,66.60
2022-12-02T03:21:58.093Z,64.60
2022-12-02T03:27:02.620Z,66.32
2022-12-02T03:32:05.977Z,61.58
2022-12-02T03:37:10.453Z,66.60
2022-12-02T03:42:17.092Z,67.35
2022-12-02T03:47:20.006Z,73.55
2022-12-02T03:52:23.117Z,66.57
2022-12-02T03:57:27.417Z,68.90
2022-12-02T04:02:30.393Z,61.58
2022-12-02T04:07:33.363Z,65.65
2022-12-02T04:12:37.669Z,67.77
2022-12-02T04:17:40.604Z,69.47
2022-12-02T04:22:43.487Z,67.93
2022-12-02T04:27:47.758Z,67.03
2022-12-02T04:32:50.672Z,67.80
2022-12-02T04:37:55.166Z,63.27
2022-12-02T04:42:59.455Z,73.13
2022-12-02T04:48:02.352Z,71.93
2022-12-02T04:53:05.380Z,68.53
2022-12-02T04:58:10.627Z,70.57
2022-12-02T05:03:37.879Z,67.70
2022-12-02T05:08:46.305Z,67.35
2022-12-02T05:13:50.802Z,64.07
2022-12-02T05:18:54.181Z,67.35
2022-12-02T05:23:57.212Z,70.90
2022-12-02T05:29:04.621Z,69.30
2022-12-02T05:34:07.525Z,69.60
2022-12-02T05:39:10.388Z,72.27
2022-12-02T05:44:23.662Z,68.07
2022-12-02T05:49:26.940Z,63.67
2022-12-02T05:54:30.606Z,60.05
2022-12-02T05:59:47.239Z,61.03
2022-12-02T06:04:50.598Z,64.78
2022-12-02T06:09:54.629Z,67.20
2022-12-02T06:14:59.078Z,61.15
2022-12-02T06:20:01.987Z,69.70
2022-12-02T06:25:19.426Z,71.65
2022-12-02T06:30:23.732Z,61.13
2022-12-02T06:35:28.536Z,59.63
2022-12-02T06:40:33.335Z,60.50
2022-12-02T06:45:37.614Z,60.53
2022-12-02T06:50:43.367Z,61.35
2022-12-02T06:55:47.058Z,58.47
2022-12-02T07:01:09.344Z,61.90
2022-12-02T07:06:15.292Z,61.80
2022-12-02T07:11:43.799Z,59.33
2022-12-02T07:16:49.254Z,63.17
2022-12-02T07:21:53.876Z,57.40
2022-12-02T07:27:05.734Z,69.87
2022-12-02T07:32:10.814Z,61.30
2022-12-02T07:37:13.752Z,66.47
2022-12-02T07:42:16.717Z,67.43
2022-12-02T07:47:20.940Z,67.90
2022-12-02T07:52:24.548Z,64.53
2022-12-02T07:57:28.082Z,61.20
2022-12-02T08:02:38.743Z,68.57
2022-12-02T08:07:42.536Z,62.37
2022-12-02T08:12:45.550Z,72.63
2022-12-02T08:17:49.793Z,64.45
2022-12-02T08:22:52.943Z,65.10
2022-12-02T08:27:55.844Z,62.57
2022-12-02T08:33:00.088Z,60.43
2022-12-02T08:38:03.264Z,57.90
2022-12-02T08:43:06.305Z,59.30
2022-12-02T08:48:10.551Z,57.43
2022-12-02T08:53:13.455Z,58.47
2022-12-02T08:58:16.552Z,63.63
2022-12-02T09:03:20.780Z,57.03
2022-12-02T09:08:23.835Z,58.40
2022-12-02T09:13:26.815Z,63.80
2022-12-02T09:18:31.058Z,63.93
2022-12-02T09:23:33.957Z,58.90
2022-12-02T09:28:36.843Z,61.22
2022-12-02T09:33:41.077Z,62.40
2022-12-02T09:38:43.976Z,56.13
2022-12-02T09:43:46.891Z,57.50
2022-12-02T09:48:51.112Z,58.20
2022-12-02T09:53:54.758Z,56.87
2022-12-02T09:59:18.392Z,55.90
2022-12-02T10:04:22.864Z,62.87
2022-12-02T10:09:28.721Z,57.17
2022-12-02T10:14:32.971Z,62.67
2022-12-02T10:19:36.712Z,57.40
2022-12-02T10:24:40.619Z,62.03
2022-12-02T10:29:50.328Z,57.75
2022-12-02T10:35:04.525Z,54.27
2022-12-02T10:40:18.872Z,58.70
2022-12-02T10:45:25.330Z,61.30
2022-12-02T10:50:28.221Z,57.77
2022-12-02T10:55:31.136Z,63.35
2022-12-02T11:00:39.544Z,58.63
2022-12-02T11:05:45.491Z,60.53
2022-12-02T11:10:50.677Z,68.00
2022-12-02T11:15:54.953Z,56.97
2022-12-02T11:21:33.604Z,59.20
2022-12-02T11:27:10.955Z,62.47
2022-12-02T11:32:20.414Z,62.88
2022-12-02T11:37:45.281Z,57.60
2022-12-02T11:42:48.240Z,62.88
2022-12-02T11:48:00.227Z,66.22
2022-12-02T11:53:05.094Z,59.42
2022-12-02T11:58:18.636Z,55.60
2022-12-02T12:03:23.206Z,56.90
2022-12-02T12:08:27.199Z,60.88
2022-12-02T12:13:35.627Z,55.88
2022-12-02T12:18:45.824Z,63.38
2022-12-02T12:23:48.931Z,54.97
2022-12-02T12:28:51.893Z,58.65
2022-12-02T12:33:56.200Z,64.00
2022-12-02T12:38:59.080Z,62.33
2022-12-02T12:44:02.059Z,68.63
2022-12-02T12:49:06.318Z,71.23
2022-12-02T12:54:09.184Z,65.63
2022-12-02T12:59:12.091Z,62.67
2022-12-02T13:04:16.350Z,65.73
2022-12-02T13:09:19.294Z,78.63
2022-12-02T13:14:22.253Z,70.15
2022-12-02T13:19:26.535Z,65.57
2022-12-02T13:24:29.420Z,60.60
2022-12-02T13:29:32.327Z,60.50
2022-12-02T13:34:36.552Z,63.60
2022-12-02T13:39:39.469Z,64.93
2022-12-02T13:44:42.484Z,64.47
2022-12-02T13:49:46.748Z,65.70
2022-12-02T13:54:49.903Z,67.67
2022-12-02T13:59:52.913Z,64.37
2022-12-02T14:04:59.039Z,70.25
2022-12-02T14:10:06.698Z,67.60
2022-12-02T14:15:10.543Z,64.17
2022-12-02T14:20:14.988Z,61.78
2022-12-02T14:25:18.020Z,63.92
2022-12-02T14:30:21.752Z,59.05
2022-12-02T14:35:26.018Z,65.85
2022-12-02T14:40:28.918Z,61.08
2022-12-02T14:45:31.869Z,60.50
2022-12-02T14:50:36.194Z,55.40
2022-12-02T14:55:39.570Z,62.97
2022-12-02T15:00:42.583Z,57.22
2022-12-02T15:05:47.230Z,56.93
2022-12-02T15:10:51.716Z,58.17
2022-12-02T15:15:59.845Z,59.15
2022-12-02T15:21:13.269Z,56.53
2022-12-02T15:26:16.469Z,55.93
2022-12-02T15:31:19.481Z,55.10
2022-12-02T15:36:23.921Z,49.13
2022-12-02T15:41:26.818Z,47.60
2022-12-02T15:46:29.758Z,48.50
2022-12-02T15:51:34.100Z,45.65
2022-12-02T15:56:37.016Z,44.65
2022-12-02T16:01:40.089Z,43.37
2022-12-02T16:06:44.507Z,47.83
2022-12-02T16:11:47.416Z,44.60
2022-12-02T16:16:50.382Z,41.97
2022-12-02T16:21:55.013Z,40.50
2022-12-02T16:26:57.911Z,43.90
2022-12-02T16:32:00.995Z,46.27
2022-12-02T16:37:05.410Z,41.65
2022-12-02T16:42:10.415Z,43.30
2022-12-02T16:47:13.297Z,45.17
2022-12-02T16:52:17.564Z,45.67
2022-12-02T16:57:20.473Z,42.03
2022-12-02T17:02:27.477Z,44.63
2022-12-02T17:07:34.790Z,42.07
2022-12-02T17:12:37.844Z,40.87
2022-12-02T17:17:45.894Z,41.13
2022-12-02T17:22:58.642Z,38.97
2022-12-02T17:28:01.543Z,39.07
2022-12-02T17:33:04.452Z,40.90
2022-12-02T17:38:08.980Z,44.43
2022-12-02T17:43:16.833Z,39.53
2022-12-02T17:48:20.201Z,41.07
2022-12-02T17:53:24.624Z,39.57
2022-12-02T17:58:27.669Z,39.73
2022-12-02T18:03:30.574Z,39.47
2022-12-02T18:08:35.324Z,40.13
2022-12-02T18:13:42.315Z,39.13
2022-12-02T18:18:45.274Z,39.95
2022-12-02T18:23:49.594Z,41.10
2022-12-02T18:28:53.572Z,42.27
2022-12-02T18:33:56.456Z,40.27
2022-12-02T18:39:00.754Z,41.60
2022-12-02T18:44:03.655Z,40.43
2022-12-02T18:49:06.564Z,39.80
2022-12-02T18:54:10.916Z,40.80
2022-12-02T18:59:13.939Z,41.27
2022-12-02T19:04:18.050Z,39.73
2022-12-02T19:09:22.858Z,40.17
2022-12-02T19:14:25.887Z,39.53
2022-12-02T19:19:28.956Z,39.23
2022-12-02T19:24:33.252Z,40.27
2022-12-02T19:29:36.160Z,41.87
2022-12-02T19:34:40.281Z,41.03
2022-12-02T19:39:44.515Z,40.63
2022-12-02T19:44:47.555Z,38.30
2022-12-02T19:49:50.633Z,40.30
2022-12-02T19:54:55.445Z,39.17
2022-12-02T19:59:58.665Z,39.93
2022-12-02T20:05:01.592Z,39.20
2022-12-02T20:10:06.921Z,38.63
2022-12-02T20:15:11.377Z,39.57
2022-12-02T20:20:16.035Z,39.83
2022-12-02T20:25:20.440Z,39.53
2022-12-02T20:30:23.641Z,39.23
2022-12-02T20:35:26.668Z,39.23
2022-12-02T20:40:31.314Z,38.77
2022-12-02T20:45:34.295Z,38.63
2022-12-02T20:50:37.218Z,39.37
2022-12-02T20:55:41.500Z,38.37
2022-12-02T21:00:44.438Z,38.70
2022-12-02T21:05:47.453Z,38.63
2022-12-02T21:10:51.693Z,38.13
2022-12-02T21:16:00.513Z,37.77
2022-12-02T21:21:03.395Z,38.20
2022-12-02T21:26:15.496Z,38.33
2022-12-02T21:31:18.438Z,38.40
2022-12-02T21:36:21.476Z,38.90
2022-12-02T21:41:25.719Z,39.60
2022-12-02T21:46:28.718Z,38.20
2022-12-02T21:51:31.761Z,39.00
2022-12-02T21:56:37.118Z,39.43
2022-12-02T22:01:41.026Z,38.43
2022-12-02T22:06:44.588Z,39.23
2022-12-02T22:11:48.836Z,38.90
2022-12-02T22:16:51.875Z,40.30
2022-12-02T22:21:54.842Z,39.30
2022-12-02T22:26:59.053Z,39.33
2022-12-02T22:32:04.111Z,39.50
2022-12-02T22:37:09.379Z,38.40
2022-12-02T22:42:13.632Z,39.17
2022-12-02T22:47:16.525Z,39.13
2022-12-02T22:52:19.661Z,39.90
2022-12-02T22:57:23.880Z,39.50
2022-12-02T23:02:26.824Z,41.95
2022-12-02T23:07:29.778Z,40.75
2022-12-02T23:12:34.022Z,40.33
2022-12-02T23:17:36.878Z,40.30
2022-12-02T23:22:39.827Z,39.67
2022-12-02T23:27:44.631Z,39.13
2022-12-02T23:32:47.525Z,40.30
2022-12-02T23:37:50.431Z,39.30
2022-12-02T23:42:54.647Z,41.27
2022-12-02T23:47:57.624Z,40.37
2022-12-02T23:53:00.789Z,41.67
2022-12-02T23:58:05.461Z,39.50
